Time;durP1;ratioP1;P1;durP2;ratioP2;P2;SDS_P1;SDS_P2;PMS_P1;PMS_P2;Temp;Humidity;BMP_temperature;BMP_pressure;BME280_temperature;BME280_humidity;BME280_pressure;Samples;Min_cycle;Max_cycle;Signal;HPM_P1;HPM_P2
2022/03/09 00:01:38;;;;;;;4.35;1.50;;;20.70;85.20;;;;;;5035242;28;20562;-62
2022/03/09 00:40:08;;;;;;;7.55;1.70;;;21.10;82.60;;;;;;5047482;28;20103;-62
2022/03/09 00:42:36;;;;;;;7.78;1.48;;;21.10;82.70;;;;;;5035530;28;20032;-62
2022/03/09 00:45:04;;;;;;;8.98;1.48;;;21.10;82.20;;;;;;5048214;28;20028;-62
2022/03/09 00:47:31;;;;;;;4.82;0.90;;;21.10;82.30;;;;;;5050606;28;20060;-62
2022/03/09 00:49:59;;;;;;;8.65;1.58;;;21.10;82.00;;;;;;5058805;28;20025;-61
2022/03/09 00:52:26;;;;;;;7.05;1.60;;;21.00;83.50;;;;;;5040262;28;20372;-62
2022/03/09 00:54:53;;;;;;;12.75;1.30;;;21.00;82.50;;;;;;5062273;28;20039;-62
2022/03/09 00:57:20;;;;;;;9.52;1.60;;;21.10;80.50;;;;;;5055196;28;20057;-62
2022/03/09 00:59:47;;;;;;;15.50;2.05;;;21.10;82.40;;;;;;5052020;28;20120;-62
2022/03/09 01:02:15;;;;;;;7.38;1.20;;;21.10;81.70;;;;;;5053690;28;20025;-61
2022/03/09 01:04:42;;;;;;;13.40;2.10;;;21.20;80.30;;;;;;5045477;28;20079;-63
2022/03/09 01:07:09;;;;;;;9.23;1.48;;;21.30;80.50;;;;;;5046293;28;20082;-63
2022/03/09 01:09:36;;;;;;;5.93;1.40;;;21.30;79.30;;;;;;5055344;28;20076;-63
2022/03/09 01:12:06;;;;;;;3.85;1.00;;;21.30;80.10;;;;;;5042253;28;20049;-64
2022/03/09 01:14:34;;;;;;;6.53;1.50;;;21.30;80.00;;;;;;5050884;28;20096;-63
2022/03/09 01:17:01;;;;;;;5.35;1.00;;;21.30;80.50;;;;;;5050912;28;20025;-63
2022/03/09 01:19:28;;;;;;;8.65;1.13;;;21.50;79.00;;;;;;5050535;28;20036;-63
2022/03/09 01:21:55;;;;;;;12.05;2.58;;;21.70;78.80;;;;;;5050526;28;20441;-62
2022/03/09 01:24:22;;;;;;;13.05;3.28;;;21.70;80.00;;;;;;5051077;28;20021;-63
2022/03/09 01:26:49;;;;;;;6.03;2.22;;;21.70;79.00;;;;;;5033116;28;20458;-63
2022/03/09 01:29:17;;;;;;;12.32;1.50;;;21.80;80.90;;;;;;5050383;28;20380;-63
2022/03/09 01:31:44;;;;;;;1.98;1.02;;;21.90;77.60;;;;;;5034053;28;20041;-63
2022/03/09 01:34:11;;;;;;;4.38;1.33;;;22.00;77.80;;;;;;5049834;28;20032;-63
2022/03/09 01:36:38;;;;;;;10.15;2.28;;;22.00;78.00;;;;;;5037878;28;20041;-64
2022/03/09 01:39:06;;;;;;;4.03;1.40;;;22.00;78.30;;;;;;5047939;28;20055;-63
2022/03/09 04:45:44;;;;;;;10.00;1.40;;;22.30;72.70;;;;;;5026468;28;20086;-62
2022/03/09 04:48:11;;;;;;;6.97;1.92;;;22.20;71.50;;;;;;5051312;28;20048;-63
2022/03/09 04:50:39;;;;;;;11.73;2.70;;;22.20;72.20;;;;;;5043198;28;20029;-62
2022/03/09 04:53:06;;;;;;;8.82;1.30;;;22.10;71.50;;;;;;5051323;28;20080;-62
2022/03/09 04:55:33;;;;;;;2.80;1.25;;;22.10;71.40;;;;;;5034086;28;20115;-63
2022/03/09 04:58:00;;;;;;;3.22;1.33;;;22.10;69.70;;;;;;5051080;28;20048;-62
2022/03/09 05:00:27;;;;;;;11.13;2.80;;;22.10;69.50;;;;;;5051755;28;20128;-63
2022/03/09 05:02:54;;;;;;;5.47;2.28;;;22.10;71.20;;;;;;5033996;28;20037;-62
2022/03/09 05:05:22;;;;;;;15.23;2.40;;;22.20;70.40;;;;;;5051078;28;20403;-63
2022/03/09 05:07:52;;;;;;;5.93;1.30;;;22.20;70.90;;;;;;5051776;28;20037;-63
2022/03/09 05:10:19;;;;;;;9.02;1.63;;;22.10;68.90;;;;;;5052508;28;20390;-62
2022/03/09 05:12:46;;;;;;;12.80;2.88;;;22.10;70.00;;;;;;5031551;28;20514;-62
2022/03/09 05:15:13;;;;;;;9.02;2.10;;;22.10;70.70;;;;;;5050896;28;20513;-62
2022/03/09 05:17:42;;;;;;;6.32;1.63;;;22.10;70.10;;;;;;5048927;28;20033;-62
2022/03/09 05:20:10;;;;;;;10.88;1.52;;;22.10;70.20;;;;;;5017087;28;20095;-64
2022/03/09 05:22:37;;;;;;;5.55;1.75;;;22.20;69.10;;;;;;5050472;28;20075;-62
2022/03/09 05:25:06;;;;;;;14.63;1.85;;;22.20;70.60;;;;;;5051156;28;20487;-62
2022/03/09 05:27:34;;;;;;;2.83;1.30;;;22.10;71.60;;;;;;5051806;28;20479;-63
2022/03/09 05:30:01;;;;;;;7.78;2.25;;;22.10;69.30;;;;;;5048933;28;20045;-62
2022/03/09 05:32:28;;;;;;;14.55;2.28;;;22.10;70.10;;;;;;5033266;28;20033;-63
2022/03/09 05:34:55;;;;;;;11.55;2.63;;;22.10;69.90;;;;;;5043089;28;20503;-63
2022/03/09 05:37:23;;;;;;;6.55;2.28;;;22.10;70.30;;;;;;5050295;28;20458;-64
2022/03/09 05:39:50;;;;;;;13.13;1.60;;;22.10;70.80;;;;;;5033117;28;20033;-65
2022/03/09 05:42:17;;;;;;;10.32;1.88;;;22.10;70.00;;;;;;5051056;28;20048;-64
2022/03/09 05:44:44;;;;;;;8.60;1.90;;;22.10;69.80;;;;;;5050884;28;20120;-65
2022/03/09 05:47:28;;;;;;;9.73;1.75;;;22.10;68.70;;;;;;5031789;28;20509;-64
2022/03/09 05:49:55;;;;;;;7.32;1.83;;;22.10;68.90;;;;;;5027964;28;20551;-64
2022/03/09 05:52:22;;;;;;;9.82;2.58;;;22.10;69.20;;;;;;5030532;28;20129;-64
2022/03/09 05:54:49;;;;;;;13.65;1.88;;;22.10;70.70;;;;;;5030911;28;20049;-63
2022/03/09 05:57:20;;;;;;;11.18;2.20;;;22.10;71.60;;;;;;5012942;28;20033;-64
2022/03/09 05:59:48;;;;;;;8.10;2.33;;;22.10;71.40;;;;;;5029419;28;20038;-64
2022/03/09 06:02:15;;;;;;;10.77;2.03;;;22.00;71.60;;;;;;5013276;28;20033;-64
2022/03/09 06:04:45;;;;;;;9.05;2.20;;;22.10;70.60;;;;;;5010449;28;20052;-64
2022/03/09 06:07:12;;;;;;;4.63;2.10;;;22.10;70.80;;;;;;5016664;28;20030;-63
2022/03/09 06:09:39;;;;;;;15.60;2.15;;;22.10;71.20;;;;;;5031936;28;20042;-64
2022/03/09 06:12:08;;;;;;;7.93;2.60;;;22.00;70.90;;;;;;5038085;28;20048;-63
2022/03/09 06:14:35;;;;;;;12.77;2.80;;;22.00;71.90;;;;;;5025581;28;20631;-63
2022/03/09 06:17:02;;;;;;;10.60;2.40;;;22.00;73.20;;;;;;5032595;28;20045;-63
2022/03/09 06:19:29;;;;;;;9.43;2.30;;;21.90;72.80;;;;;;5027021;28;20416;-66
2022/03/09 06:21:56;;;;;;;11.50;2.33;;;21.90;73.00;;;;;;5030664;28;20045;-66
2022/03/09 06:24:24;;;;;;;11.93;2.72;;;22.00;70.20;;;;;;5028836;28;20030;-65
2022/03/09 06:26:53;;;;;;;21.95;3.53;;;21.90;72.10;;;;;;5032632;28;20033;-64
2022/03/09 06:29:21;;;;;;;9.43;2.63;;;21.90;73.80;;;;;;5028854;28;20041;-65
2022/03/09 06:31:48;;;;;;;18.58;3.67;;;21.80;73.30;;;;;;5029629;28;20590;-65
2022/03/09 06:34:15;;;;;;;15.25;3.22;;;21.80;73.80;;;;;;5005999;28;20033;-66
2022/03/09 06:36:44;;;;;;;13.73;4.07;;;21.80;73.10;;;;;;5029302;28;20041;-63
2022/03/09 06:39:16;;;;;;;14.00;2.80;;;21.80;74.80;;;;;;5030826;28;20037;-66
2022/03/09 06:41:44;;;;;;;14.35;4.00;;;21.80;74.10;;;;;;5012492;28;20104;-65
2022/03/09 06:44:14;;;;;;;11.38;3.53;;;21.70;73.50;;;;;;5030215;28;20034;-62
2022/03/09 06:46:42;;;;;;;10.80;2.47;;;21.70;75.50;;;;;;5026970;28;20499;-63
2022/03/09 10:48:07;;;;;;;17.08;3.53;;;19.60;78.30;;;;;;5037745;28;20055;-66
2022/03/09 10:50:34;;;;;;;12.85;3.38;;;19.60;78.00;;;;;;5025815;28;20061;-65
2022/03/09 10:53:04;;;;;;;11.48;3.15;;;19.60;78.10;;;;;;5022903;28;20037;-65
2022/03/09 10:55:37;;;;;;;21.08;3.28;;;19.60;78.70;;;;;;5049259;28;20060;-65
2022/03/09 10:58:17;;;;;;;21.50;3.70;;;19.50;78.30;;;;;;5029246;28;20432;-64
2022/03/09 11:00:55;;;;;;;22.20;3.65;;;19.50;79.00;;;;;;5042620;28;20131;-65
2022/03/09 11:03:23;;;;;;;22.45;4.25;;;19.50;78.40;;;;;;5049766;28;20037;-64
2022/03/09 11:05:50;;;;;;;17.92;4.00;;;19.50;78.60;;;;;;5047320;28;20184;-65
2022/03/09 11:08:20;;;;;;;13.50;3.45;;;19.50;79.20;;;;;;5048854;28;20124;-66
2022/03/09 11:10:47;;;;;;;21.15;4.30;;;19.50;78.70;;;;;;5042199;28;20041;-65
2022/03/09 11:13:15;;;;;;;19.65;3.63;;;19.50;78.70;;;;;;5043976;28;20037;-65
2022/03/09 11:15:43;;;;;;;18.95;3.40;;;19.40;78.00;;;;;;5048719;28;20376;-66
2022/03/09 11:18:17;;;;;;;17.27;3.25;;;19.50;78.00;;;;;;5049544;28;20033;-65
2022/03/09 11:20:45;;;;;;;16.58;3.70;;;19.50;78.20;;;;;;5010823;28;20033;-65
2022/03/09 11:23:13;;;;;;;53.60;5.25;;;19.50;78.30;;;;;;5015015;28;20120;-67
2022/03/09 11:25:42;;;;;;;20.80;3.60;;;19.50;77.70;;;;;;5031709;28;20043;-66
2022/03/09 11:28:10;;;;;;;13.77;3.72;;;19.50;77.90;;;;;;5015304;28;20068;-64
2022/03/09 11:30:38;;;;;;;15.65;3.55;;;19.50;78.50;;;;;;5015840;28;20028;-66
2022/03/09 11:33:05;;;;;;;20.83;3.65;;;19.50;78.10;;;;;;5048205;28;20060;-66
2022/03/09 11:35:40;;;;;;;16.48;3.22;;;19.40;76.60;;;;;;5031083;28;20111;-66
2022/03/09 11:38:43;;;;;;;18.50;2.92;;;19.40;77.00;;;;;;5049432;28;20025;-66
2022/03/09 11:41:16;;;;;;;14.70;3.15;;;19.40;76.60;;;;;;4970840;28;20129;-66
2022/03/09 11:43:44;;;;;;;19.92;3.47;;;19.40;77.00;;;;;;5038852;28;20041;-65
2022/03/09 11:46:11;;;;;;;25.70;3.90;;;19.40;76.90;;;;;;5052641;28;20052;-66
2022/03/09 11:48:58;;;;;;;57.70;4.75;;;19.30;76.30;;;;;;5020515;28;20412;-67
2022/03/09 11:51:29;;;;;;;14.23;3.05;;;19.30;74.70;;;;;;5042955;28;20033;-65
2022/03/09 11:53:57;;;;;;;19.33;3.75;;;19.40;76.30;;;;;;5052741;28;20061;-66
2022/03/09 11:56:37;;;;;;;12.88;2.65;;;19.30;75.20;;;;;;5052735;28;20037;-66
2022/03/09 11:59:28;;;;;;;16.60;3.58;;;19.30;74.80;;;;;;5053020;28;20099;-66
2022/03/09 12:01:58;;;;;;;12.23;3.00;;;19.30;74.90;;;;;;5035362;28;20120;-66
2022/03/09 12:04:45;;;;;;;17.38;3.90;;;19.30;75.30;;;;;;5049553;28;20033;-66
2022/03/09 12:07:13;;;;;;;19.02;3.63;;;19.30;75.90;;;;;;5052343;28;20029;-66
2022/03/09 12:09:59;;;;;;;18.67;3.15;;;19.30;75.60;;;;;;5052222;28;20041;-66
2022/03/09 12:12:26;;;;;;;21.75;3.15;;;19.30;75.70;;;;;;5053013;28;20083;-65
2022/03/09 12:15:06;;;;;;;16.88;3.65;;;19.30;75.60;;;;;;5034327;28;20044;-66
2022/03/09 12:17:44;;;;;;;20.48;4.18;;;19.30;76.00;;;;;;5034324;28;20040;-67
2022/03/09 12:20:29;;;;;;;14.48;3.22;;;19.30;76.30;;;;;;5035791;28;20029;-65
2022/03/09 12:22:57;;;;;;;20.85;3.70;;;19.30;75.60;;;;;;5039584;28;20029;-66
2022/03/09 12:25:50;;;;;;;14.77;3.15;;;19.30;75.30;;;;;;5052622;28;20098;-66
2022/03/09 12:28:35;;;;;;;18.75;3.53;;;19.20;75.30;;;;;;5050838;28;20461;-66
2022/03/09 12:31:10;;;;;;;18.13;3.35;;;19.30;75.20;;;;;;5051712;28;20037;-65
2022/03/09 12:33:39;;;;;;;11.55;3.05;;;19.20;75.30;;;;;;5055224;28;20033;-65
2022/03/09 12:36:10;;;;;;;18.63;3.83;;;19.20;76.20;;;;;;5051787;28;20435;-66
2022/03/09 12:38:43;;;;;;;15.82;3.28;;;19.30;76.60;;;;;;5034433;28;20037;-66
2022/03/09 12:41:29;;;;;;;21.42;3.30;;;19.20;76.90;;;;;;5051925;28;20025;-66
2022/03/09 12:44:01;;;;;;;19.88;3.67;;;19.20;75.60;;;;;;5052252;28;20033;-66
2022/03/09 12:46:28;;;;;;;16.80;3.20;;;19.20;75.40;;;;;;5051542;28;20033;-66
2022/03/09 12:49:11;;;;;;;20.40;4.10;;;19.20;76.00;;;;;;5033775;28;20045;-64
2022/03/09 12:51:40;;;;;;;19.20;3.75;;;19.20;76.50;;;;;;5051750;28;20052;-64
2022/03/09 12:54:07;;;;;;;16.70;3.60;;;19.10;77.30;;;;;;5033379;28;20124;-63
2022/03/09 12:56:34;;;;;;;17.52;3.50;;;19.10;77.00;;;;;;5017086;28;20021;-64
2022/03/09 12:59:13;;;;;;;19.98;3.80;;;19.00;76.30;;;;;;5048001;28;20068;-64
2022/03/09 13:01:40;;;;;;;21.08;3.53;;;19.00;76.10;;;;;;5051576;28;20028;-64
2022/03/09 13:04:07;;;;;;;18.17;4.13;;;19.00;76.60;;;;;;5034128;28;20029;-64
2022/03/09 13:06:36;;;;;;;21.52;4.15;;;19.00;76.20;;;;;;5051393;28;20103;-64
2022/03/09 13:09:18;;;;;;;19.77;3.78;;;19.00;76.00;;;;;;5050790;28;20049;-64
2022/03/09 13:11:45;;;;;;;16.25;3.72;;;19.00;75.20;;;;;;5035677;28;20029;-64
2022/03/09 13:14:14;;;;;;;14.38;3.15;;;19.00;75.40;;;;;;5033425;28;20029;-64
2022/03/09 13:16:41;;;;;;;23.45;3.22;;;19.00;75.00;;;;;;5016425;28;20660;-64
2022/03/09 13:19:08;;;;;;;12.35;3.05;;;19.00;74.50;;;;;;5049524;28;20083;-64
2022/03/09 13:21:36;;;;;;;19.73;3.50;;;19.00;75.20;;;;;;5033143;28;20037;-64
2022/03/09 13:24:08;;;;;;;22.45;3.08;;;18.90;75.10;;;;;;5017281;28;20025;-64
2022/03/09 13:26:42;;;;;;;13.30;2.92;;;19.00;74.80;;;;;;5051219;28;20025;-64
2022/03/09 13:29:18;;;;;;;17.48;3.45;;;18.90;74.80;;;;;;5032862;28;20659;-64
2022/03/09 13:31:49;;;;;;;17.15;3.58;;;18.90;75.30;;;;;;5051238;28;20166;-64
2022/03/09 13:34:27;;;;;;;18.58;4.40;;;19.00;75.10;;;;;;5032780;28;20258;-64
2022/03/09 13:37:08;;;;;;;11.23;2.85;;;19.00;75.80;;;;;;5033838;28;20167;-64
2022/03/09 13:39:39;;;;;;;15.05;3.17;;;19.00;74.80;;;;;;5033597;28;20421;-64
2022/03/09 13:42:08;;;;;;;11.60;3.38;;;18.90;75.10;;;;;;5051285;28;20477;-64
2022/03/09 13:44:35;;;;;;;10.15;2.85;;;18.90;74.80;;;;;;5051140;28;20475;-64
2022/03/09 13:47:11;;;;;;;12.35;2.80;;;18.90;75.20;;;;;;5049895;28;20572;-64
2022/03/09 13:50:05;;;;;;;16.27;3.15;;;18.90;74.90;;;;;;5050862;28;20171;-64
2022/03/09 13:52:33;;;;;;;16.73;3.70;;;18.80;75.40;;;;;;5034069;28;20043;-64
2022/03/09 13:55:03;;;;;;;15.63;3.13;;;18.80;74.40;;;;;;5045016;28;20044;-64
2022/03/09 13:57:37;;;;;;;15.13;2.95;;;18.70;74.70;;;;;;5050336;28;20143;-64
2022/03/09 14:00:23;;;;;;;18.23;2.88;;;18.70;73.80;;;;;;5050361;28;20053;-64
2022/03/09 14:03:11;;;;;;;20.95;3.50;;;18.70;73.80;;;;;;5050232;28;20041;-65
2022/03/09 14:05:39;;;;;;;15.50;2.65;;;18.70;74.60;;;;;;5033330;28;20044;-65
2022/03/09 14:08:06;;;;;;;14.70;2.60;;;18.70;74.50;;;;;;5049933;28;20060;-66
2022/03/09 14:10:34;;;;;;;20.85;3.58;;;18.70;74.20;;;;;;5050191;28;20037;-65
2022/03/09 14:13:17;;;;;;;12.45;2.78;;;18.60;72.90;;;;;;5049584;28;20441;-65
2022/03/09 14:15:47;;;;;;;12.63;2.22;;;18.70;73.50;;;;;;5032599;28;20112;-65
2022/03/09 14:18:14;;;;;;;14.25;2.70;;;18.60;72.70;;;;;;5050486;28;20041;-65
2022/03/09 14:20:42;;;;;;;12.27;2.80;;;18.60;72.80;;;;;;5016376;28;20105;-66
2022/03/09 14:23:12;;;;;;;13.15;2.50;;;18.60;73.00;;;;;;5050647;28;20032;-65
2022/03/09 14:25:41;;;;;;;12.45;2.92;;;18.60;73.20;;;;;;5049960;28;20098;-65
2022/03/09 14:28:08;;;;;;;18.10;3.40;;;18.60;75.50;;;;;;5049810;28;20032;-65
2022/03/09 14:30:35;;;;;;;13.50;2.78;;;18.60;74.70;;;;;;5049800;28;20029;-64
2022/03/09 14:33:02;;;;;;;14.98;2.72;;;18.60;74.00;;;;;;5050056;28;20106;-65
2022/03/09 14:35:30;;;;;;;17.67;2.90;;;18.60;73.10;;;;;;5031724;28;20414;-65
2022/03/09 14:37:57;;;;;;;15.02;2.92;;;18.50;75.10;;;;;;5049832;28;20487;-65
2022/03/09 14:40:26;;;;;;;17.20;2.88;;;18.50;73.30;;;;;;5049610;28;20116;-65
2022/03/09 14:42:54;;;;;;;14.47;3.43;;;18.50;74.10;;;;;;5032878;28;20120;-66
2022/03/09 14:45:22;;;;;;;25.75;3.70;;;18.50;74.00;;;;;;5050188;28;20032;-66
2022/03/09 14:47:50;;;;;;;16.73;2.85;;;18.50;74.90;;;;;;5027816;28;20439;-65
2022/03/09 14:50:17;;;;;;;17.70;3.75;;;18.40;73.90;;;;;;5049767;28;20506;-66
2022/03/09 14:52:45;;;;;;;13.93;3.15;;;18.40;74.30;;;;;;5049555;28;20553;-66
2022/03/09 14:55:13;;;;;;;11.05;2.80;;;18.40;72.60;;;;;;5050108;28;20033;-66
2022/03/09 14:57:40;;;;;;;12.95;2.67;;;18.40;72.50;;;;;;5049603;28;20052;-65
2022/03/09 15:00:08;;;;;;;12.55;2.75;;;18.40;72.00;;;;;;5032345;28;20029;-66
2022/03/09 15:02:36;;;;;;;11.77;2.80;;;18.40;72.10;;;;;;5050256;28;20514;-66
2022/03/09 15:05:04;;;;;;;18.70;3.03;;;18.30;72.20;;;;;;5049231;28;20048;-65
2022/03/09 15:07:32;;;;;;;21.80;3.42;;;18.40;71.30;;;;;;5048938;28;20037;-65
2022/03/09 15:10:02;;;;;;;12.80;2.88;;;18.30;71.30;;;;;;5049793;28;20045;-64
2022/03/09 15:12:33;;;;;;;14.60;2.70;;;18.30;71.20;;;;;;5036591;28;20108;-66
2022/03/09 15:14:59;;;;;;;;;;;18.30;71.40;;;;;;5033245;28;20032;-65
2022/03/09 15:17:27;;;;;;;11.85;2.83;;;18.30;72.20;;;;;;5043105;28;19938;-65
2022/03/09 15:19:54;;;;;;;17.65;3.15;;;18.30;72.30;;;;;;5035979;28;20033;-65
2022/03/09 15:22:22;;;;;;;12.82;2.45;;;18.30;72.80;;;;;;5054104;28;20061;-65
2022/03/09 15:24:49;;;;;;;11.77;2.90;;;18.30;70.90;;;;;;5053561;28;20103;-65
2022/03/09 15:27:16;;;;;;;19.13;3.45;;;18.30;72.30;;;;;;5035260;28;20029;-66
2022/03/09 15:29:43;;;;;;;11.82;2.97;;;18.30;72.70;;;;;;5053542;28;20052;-65
2022/03/09 15:32:11;;;;;;;14.57;3.20;;;18.20;70.90;;;;;;5053304;28;20021;-65
2022/03/09 15:37:06;;;;;;;18.17;2.88;;;18.20;71.60;;;;;;5045146;28;20040;-67
2022/03/09 15:39:34;;;;;;;17.75;2.97;;;18.20;72.30;;;;;;5033894;28;20060;-68
2022/03/09 15:42:01;;;;;;;20.50;3.45;;;18.20;72.70;;;;;;5040213;28;20036;-68
2022/03/09 15:44:28;;;;;;;13.73;2.50;;;18.20;71.80;;;;;;5035073;28;20036;-68
2022/03/09 15:46:55;;;;;;;10.95;2.40;;;18.10;71.60;;;;;;5018233;28;20052;-67
2022/03/09 15:49:23;;;;;;;12.82;3.38;;;18.10;70.50;;;;;;5031556;28;20042;-68
2022/03/09 15:51:50;;;;;;;16.00;2.92;;;18.10;70.30;;;;;;5046061;28;20040;-68
2022/03/09 15:54:17;;;;;;;15.88;2.88;;;18.10;70.70;;;;;;5052929;28;20024;-67
2022/03/09 15:56:45;;;;;;;9.23;2.22;;;18.20;72.60;;;;;;5039222;28;20041;-68
2022/03/09 15:59:12;;;;;;;9.18;2.80;;;18.10;73.20;;;;;;5052615;28;20044;-68
2022/03/09 16:01:39;;;;;;;17.67;2.75;;;18.10;72.10;;;;;;5053082;28;20029;-68
2022/03/09 16:04:06;;;;;;;10.52;3.17;;;18.10;72.40;;;;;;5053193;28;20025;-67
2022/03/09 16:06:35;;;;;;;13.43;2.22;;;18.00;70.60;;;;;;5050248;28;20041;-67
2022/03/09 16:09:02;;;;;;;10.60;2.47;;;18.00;71.10;;;;;;5049372;28;20081;-68
2022/03/09 16:11:29;;;;;;;14.68;2.40;;;18.00;72.30;;;;;;5051943;28;20048;-68
2022/03/09 16:13:57;;;;;;;11.27;2.25;;;18.00;70.70;;;;;;5052644;28;20025;-68
2022/03/09 16:16:26;;;;;;;16.92;2.47;;;18.00;70.80;;;;;;5049238;28;20449;-68
2022/03/09 16:18:53;;;;;;;11.23;2.10;;;18.00;71.60;;;;;;5051043;28;20033;-68
2022/03/09 16:21:21;;;;;;;13.40;2.15;;;17.90;72.00;;;;;;5044653;28;20029;-68
2022/03/09 16:23:48;;;;;;;16.15;2.70;;;17.90;71.70;;;;;;5050410;28;20033;-68
2022/03/09 16:26:16;;;;;;;10.45;2.00;;;17.90;71.60;;;;;;5028904;28;20032;-68
2022/03/09 16:28:43;;;;;;;11.88;2.83;;;17.90;69.60;;;;;;5050568;28;20044;-68
2022/03/09 16:31:10;;;;;;;16.35;2.22;;;17.90;70.70;;;;;;5051252;28;20033;-68
2022/03/09 16:33:37;;;;;;;6.88;1.83;;;17.90;69.20;;;;;;5033082;28;20038;-68
2022/03/09 16:36:05;;;;;;;8.57;2.00;;;17.80;68.20;;;;;;5046412;28;20045;-68
2022/03/09 16:38:32;;;;;;;6.63;1.65;;;17.90;69.90;;;;;;5051229;28;20060;-68
2022/03/09 16:41:00;;;;;;;10.57;1.83;;;17.90;70.40;;;;;;5037201;28;20039;-68
2022/03/09 16:43:28;;;;;;;11.07;2.00;;;17.80;69.70;;;;;;5050759;28;20040;-67
2022/03/09 16:45:56;;;;;;;7.93;2.03;;;17.80;70.40;;;;;;5036777;28;20450;-67
2022/03/09 16:48:23;;;;;;;8.57;2.13;;;17.80;72.10;;;;;;5047960;28;20494;-68
2022/03/09 16:50:50;;;;;;;10.82;1.77;;;17.80;71.00;;;;;;5050336;28;20136;-68
2022/03/09 16:53:17;;;;;;;10.48;2.10;;;17.80;72.00;;;;;;5051273;28;20119;-68
2022/03/09 16:55:45;;;;;;;11.52;1.73;;;17.80;70.90;;;;;;5050107;28;20037;-67
2022/03/09 16:58:12;;;;;;;9.10;1.85;;;17.80;70.40;;;;;;5046794;28;20049;-68
2022/03/09 17:00:39;;;;;;;6.40;1.80;;;17.80;70.20;;;;;;5050581;28;20090;-69
2022/03/09 17:03:07;;;;;;;7.15;1.48;;;17.80;70.80;;;;;;5051004;28;20457;-68
2022/03/09 17:05:34;;;;;;;9.43;1.92;;;17.80;71.60;;;;;;5033478;28;20051;-67
2022/03/09 17:08:02;;;;;;;5.28;1.33;;;17.70;70.00;;;;;;5035132;28;20080;-68
2022/03/09 17:10:29;;;;;;;8.10;1.73;;;17.80;70.40;;;;;;5048663;28;20040;-68
2022/03/09 17:12:56;;;;;;;12.20;2.03;;;17.80;70.80;;;;;;5051378;28;20375;-68
2022/03/09 17:15:23;;;;;;;9.40;1.60;;;17.80;70.50;;;;;;5051127;28;20147;-68
2022/03/09 17:17:51;;;;;;;6.40;1.58;;;17.70;72.40;;;;;;5033542;28;20061;-68
2022/03/09 17:20:18;;;;;;;11.10;1.52;;;17.70;70.50;;;;;;5050711;28;20094;-67
2022/03/09 17:22:46;;;;;;;10.32;1.98;;;17.70;71.60;;;;;;5043562;28;20478;-68
2022/03/09 17:25:13;;;;;;;7.03;1.77;;;17.70;72.30;;;;;;5051348;28;20094;-68
2022/03/09 17:27:40;;;;;;;8.60;1.85;;;17.70;70.70;;;;;;5050000;28;20083;-68
2022/03/09 17:30:08;;;;;;;18.05;9.65;;;17.60;71.90;;;;;;5044786;28;20049;-68
2022/03/09 22:51:43;;;;;;;13.45;2.65;;;19.30;65.10;;;;;;5046844;28;20075;-67
2022/03/09 22:54:11;;;;;;;15.88;3.42;;;19.30;65.00;;;;;;5049298;28;20116;-68
2022/03/09 22:56:38;;;;;;;14.13;2.97;;;19.30;66.70;;;;;;5032603;28;20033;-67
2022/03/09 22:59:05;;;;;;;11.95;2.33;;;19.40;65.80;;;;;;5032100;28;20032;-68
2022/03/09 23:01:33;;;;;;;20.05;3.28;;;19.50;65.30;;;;;;5020397;28;20036;-68
2022/03/09 23:04:00;;;;;;;15.23;3.85;;;19.60;65.00;;;;;;5034394;28;20029;-68
2022/03/09 23:06:34;;;;;;;12.00;2.83;;;19.70;64.70;;;;;;5033952;28;20037;-69
2022/03/09 23:09:03;;;;;;;20.75;2.75;;;19.70;65.90;;;;;;5051688;28;20040;-68
2022/03/09 23:11:30;;;;;;;13.68;3.22;;;19.70;64.40;;;;;;5034556;28;20119;-68
2022/03/09 23:13:57;;;;;;;39.38;5.38;;;19.70;64.70;;;;;;5029866;28;20056;-68
2022/03/09 23:16:25;;;;;;;17.60;3.75;;;19.70;63.80;;;;;;5049458;28;20032;-67
2022/03/09 23:18:52;;;;;;;16.55;3.10;;;19.80;65.10;;;;;;5032163;28;20029;-68
2022/03/09 23:21:19;;;;;;;35.20;5.75;;;19.90;66.40;;;;;;5051638;28;20033;-68
2022/03/09 23:23:46;;;;;;;20.30;3.88;;;19.90;65.00;;;;;;5031946;28;20105;-67
2022/03/09 23:26:13;;;;;;;13.60;3.22;;;20.00;64.70;;;;;;5048554;28;20399;-67
2022/03/09 23:28:40;;;;;;;13.10;2.67;;;20.00;64.90;;;;;;5042189;28;20341;-68
2022/03/09 23:31:08;;;;;;;21.38;3.85;;;19.90;64.40;;;;;;5041990;28;20032;-68
2022/03/09 23:33:35;;;;;;;21.10;3.22;;;19.90;64.80;;;;;;5051922;28;20494;-68
2022/03/09 23:36:02;;;;;;;22.23;5.13;;;20.00;65.10;;;;;;5039726;28;20387;-68
2022/03/09 23:38:29;;;;;;;19.27;3.53;;;20.00;65.40;;;;;;5051568;28;20022;-68
2022/03/09 23:40:56;;;;;;;14.52;2.90;;;20.00;64.60;;;;;;5053677;28;20234;-67
2022/03/09 23:43:24;;;;;;;24.42;5.13;;;19.90;63.50;;;;;;5063843;28;20033;-68
2022/03/09 23:45:51;;;;;;;15.60;2.20;;;20.00;65.30;;;;;;5053843;28;20413;-67
2022/03/09 23:48:18;;;;;;;8.93;2.28;;;20.00;61.20;;;;;;5049101;28;20052;-69
2022/03/09 23:50:45;;;;;;;19.17;2.63;;;20.00;61.00;;;;;;5060630;28;20120;-68
2022/03/09 23:53:12;;;;;;;12.55;2.05;;;19.90;59.90;;;;;;5055382;28;20052;-69
2022/03/09 23:55:40;;;;;;;14.63;2.60;;;19.90;60.50;;;;;;5034067;28;20494;-68
2022/03/09 23:58:07;;;;;;;20.92;4.22;;;20.00;63.30;;;;;;5038954;28;20382;-69
